Time;durP1;ratioP1;P1;durP2;ratioP2;P2;SDS_P1;SDS_P2;PMS_P1;PMS_P2;Temp;Humidity;BMP_temperature;BMP_pressure;BME280_temperature;BME280_humidity;BME280_pressure;Samples;Min_cycle;Max_cycle;Signal;HPM_P1;HPM_P2
2021/12/21 05:02:11;;;;;;;12.90;9.00;;;-1.70;99.90;;;;;;5186731;23;20599;-68
2021/12/21 05:04:38;;;;;;;10.20;7.18;;;-1.80;99.90;;;;;;4982448;28;20208;-67
2021/12/21 05:07:05;;;;;;;12.38;8.15;;;-1.80;99.90;;;;;;4990558;28;20210;-68
2021/12/21 05:09:40;;;;;;;13.65;8.80;;;-1.80;99.90;;;;;;4990007;28;20215;-68
2021/12/21 05:12:10;;;;;;;8.98;8.00;;;-1.80;99.90;;;;;;4978933;28;20238;-68
2021/12/21 05:14:37;;;;;;;10.65;8.88;;;-1.80;99.90;;;;;;4982242;28;20200;-68
2021/12/21 05:17:05;;;;;;;9.10;7.88;;;-1.80;99.90;;;;;;4972106;28;20298;-68
2021/12/21 05:19:33;;;;;;;15.10;8.00;;;-1.80;99.90;;;;;;4971315;28;20212;-68
2021/12/21 05:22:00;;;;;;;9.43;7.95;;;-1.80;99.90;;;;;;4990882;28;20220;-69
2021/12/21 05:24:27;;;;;;;12.13;7.75;;;-1.80;99.90;;;;;;4990819;28;20579;-69
2021/12/21 05:26:54;;;;;;;9.40;8.48;;;-1.80;99.90;;;;;;4981885;28;20230;-70
2021/12/21 05:29:21;;;;;;;11.57;8.13;;;-1.80;99.90;;;;;;4989617;28;20204;-69
2021/12/21 05:31:47;;;;;;;9.95;8.23;;;-1.80;99.90;;;;;;4990787;28;20696;-68
2021/12/21 05:34:14;;;;;;;8.65;7.75;;;-1.80;99.90;;;;;;4992816;28;20203;-70
2021/12/21 05:36:42;;;;;;;8.90;8.07;;;-1.80;99.90;;;;;;4995035;28;20211;-70
2021/12/21 05:39:16;;;;;;;10.48;7.65;;;-1.90;99.90;;;;;;4994358;28;20230;-70
2021/12/21 05:41:50;;;;;;;10.35;6.93;;;-1.90;99.90;;;;;;4994420;28;20266;-70
2021/12/21 05:44:17;;;;;;;15.65;8.38;;;-1.90;99.90;;;;;;4986992;28;20203;-71
2021/12/21 05:46:43;;;;;;;8.95;8.15;;;-1.90;99.90;;;;;;4994635;28;20216;-70
2021/12/21 05:49:10;;;;;;;9.07;8.07;;;-1.90;99.90;;;;;;4993652;28;20262;-70
2021/12/21 05:51:37;;;;;;;8.60;7.57;;;-1.90;99.90;;;;;;4994194;28;20297;-68
2021/12/21 05:54:05;;;;;;;8.20;7.18;;;-1.90;99.90;;;;;;4989950;28;20266;-68
2021/12/21 05:56:32;;;;;;;9.15;7.53;;;-1.90;99.90;;;;;;4994369;28;20471;-68
2021/12/21 05:59:02;;;;;;;9.30;7.43;;;-1.90;99.90;;;;;;4992852;28;20207;-69
2021/12/21 06:01:28;;;;;;;10.90;8.07;;;-1.90;99.90;;;;;;4992285;28;20271;-68
2021/12/21 06:03:55;;;;;;;8.52;7.68;;;-1.90;99.90;;;;;;4986580;28;20196;-69
2021/12/21 06:06:22;;;;;;;11.05;7.22;;;-1.90;99.90;;;;;;4974915;28;20279;-69
2021/12/21 06:08:50;;;;;;;8.77;7.88;;;-1.90;99.90;;;;;;4992853;28;20207;-69
2021/12/21 06:11:20;;;;;;;8.43;6.50;;;-1.90;99.90;;;;;;4993423;28;20250;-70
2021/12/21 06:27:31;;;;;;;12.75;7.28;;;-1.90;99.90;;;;;;4993373;28;20254;-69
2021/12/21 06:29:58;;;;;;;11.43;8.68;;;-1.90;99.90;;;;;;4993025;28;20613;-69
2021/12/21 06:32:25;;;;;;;8.40;7.22;;;-1.90;99.90;;;;;;4989667;28;20239;-68
2021/12/21 06:34:52;;;;;;;9.35;7.30;;;-2.00;99.90;;;;;;4993476;28;20611;-67
2021/12/21 06:37:19;;;;;;;9.85;7.72;;;-2.00;99.90;;;;;;4992878;28;20207;-67
2021/12/21 06:39:46;;;;;;;8.82;7.93;;;-2.00;99.90;;;;;;4974205;28;20219;-67
2021/12/21 06:42:14;;;;;;;12.35;9.25;;;-2.00;99.90;;;;;;4978453;28;20587;-67
2021/12/21 06:44:47;;;;;;;13.68;12.02;;;-2.00;99.90;;;;;;4977793;28;20214;-66
2021/12/21 06:52:43;;;;;;;17.23;11.57;;;-2.00;99.90;;;;;;4988120;28;20231;-68
2021/12/21 06:55:10;;;;;;;11.13;10.00;;;-2.00;99.90;;;;;;4980798;28;20219;-68
2021/12/21 06:57:42;;;;;;;14.63;9.05;;;-2.00;99.90;;;;;;4991667;28;20207;-68
2021/12/21 07:00:12;;;;;;;11.32;8.80;;;-2.00;99.90;;;;;;4992599;28;20218;-68
2021/12/21 07:02:39;;;;;;;23.58;15.10;;;-2.00;99.90;;;;;;4992985;28;20214;-68
2021/12/21 07:05:08;;;;;;;230.40;109.53;;;-2.00;99.90;;;;;;4991883;28;20676;-69
2021/12/21 07:07:35;;;;;;;104.28;51.58;;;-2.00;99.90;;;;;;4992723;28;20208;-68
2021/12/21 07:10:05;;;;;;;21.25;14.60;;;-2.00;99.90;;;;;;4992652;28;20208;-68
2021/12/21 07:20:43;;;;;;;15.35;8.20;;;-2.00;99.90;;;;;;4992534;28;20226;-68
2021/12/21 07:23:09;;;;;;;19.08;11.48;;;-2.00;99.90;;;;;;4996197;28;20667;-69
2021/12/21 07:25:36;;;;;;;51.88;27.55;;;-2.00;99.90;;;;;;4992238;28;20214;-68
2021/12/21 07:28:03;;;;;;;13.48;11.48;;;-2.00;99.90;;;;;;4991969;28;20208;-68
2021/12/21 07:30:31;;;;;;;21.70;11.10;;;-2.00;99.90;;;;;;4991183;28;20219;-66
2021/12/21 07:32:57;;;;;;;11.93;9.30;;;-2.00;99.90;;;;;;4992054;28;20285;-67
2021/12/21 07:35:24;;;;;;;9.82;8.75;;;-2.00;99.90;;;;;;4992375;28;20204;-67
2021/12/21 07:37:51;;;;;;;12.20;8.40;;;-2.00;99.90;;;;;;4992325;28;20258;-67
2021/12/21 07:40:18;;;;;;;10.38;8.43;;;-2.00;99.90;;;;;;4991921;28;20219;-67
2021/12/21 07:42:45;;;;;;;13.68;8.60;;;-2.00;99.90;;;;;;4991601;28;20200;-67
2021/12/21 07:45:11;;;;;;;12.27;8.65;;;-2.00;99.90;;;;;;4991684;28;20211;-68
2021/12/21 07:47:40;;;;;;;9.38;8.10;;;-2.00;99.90;;;;;;4991798;28;20208;-68
2021/12/21 07:50:08;;;;;;;12.50;9.70;;;-2.00;99.90;;;;;;4991571;28;20204;-69
2021/12/21 07:52:35;;;;;;;12.57;10.70;;;-2.00;99.90;;;;;;4990743;28;20285;-69
2021/12/21 07:55:05;;;;;;;14.57;11.43;;;-2.00;99.90;;;;;;4991905;28;20234;-69
2021/12/21 07:57:32;;;;;;;11.75;10.00;;;-2.00;99.90;;;;;;4991243;28;20300;-70
2021/12/21 08:00:01;;;;;;;15.90;9.15;;;-2.00;99.90;;;;;;4978902;28;20287;-68
2021/12/21 08:02:29;;;;;;;11.50;9.48;;;-2.00;99.90;;;;;;4992757;28;20274;-69
2021/12/21 08:04:57;;;;;;;11.80;10.18;;;-2.00;99.90;;;;;;4994973;28;20204;-69
2021/12/21 08:07:31;;;;;;;11.77;9.95;;;-2.00;99.90;;;;;;4996513;28;20214;-67
2021/12/21 08:10:06;;;;;;;13.13;12.02;;;-2.00;99.90;;;;;;5010954;28;20207;-68
2021/12/21 08:12:33;;;;;;;15.50;12.60;;;-2.00;99.90;;;;;;4990897;28;20678;-67
2021/12/21 08:15:00;;;;;;;14.48;11.82;;;-1.90;99.90;;;;;;4991154;28;20215;-67
2021/12/21 08:17:27;;;;;;;15.23;10.90;;;-1.90;99.90;;;;;;4991312;28;20234;-68
2021/12/21 08:19:53;;;;;;;19.67;11.60;;;-1.80;99.90;;;;;;4987526;28;20843;-67
2021/12/21 08:22:21;;;;;;;14.32;11.15;;;-1.80;99.90;;;;;;4990977;28;20220;-69
2021/12/21 08:24:48;;;;;;;11.82;9.95;;;-1.80;99.90;;;;;;4991216;28;20207;-69
2021/12/21 08:27:15;;;;;;;11.90;9.63;;;-1.70;99.90;;;;;;4991540;28;20200;-68
2021/12/21 08:29:41;;;;;;;17.23;11.07;;;-1.70;99.90;;;;;;4983388;28;20203;-68
2021/12/21 08:32:09;;;;;;;16.20;11.40;;;-1.60;99.90;;;;;;4987683;28;20634;-68
2021/12/21 08:34:36;;;;;;;21.55;12.05;;;-1.60;99.90;;;;;;4990980;28;20215;-68
2021/12/21 08:37:04;;;;;;;30.60;20.88;;;-1.50;99.90;;;;;;4991817;28;20215;-67
2021/12/21 08:39:39;;;;;;;14.25;11.07;;;-1.50;99.90;;;;;;4991303;28;20212;-69
2021/12/21 08:42:07;;;;;;;12.95;10.48;;;-1.50;99.90;;;;;;4991826;28;20232;-67
2021/12/21 08:44:34;;;;;;;18.63;10.30;;;-1.40;99.90;;;;;;4990084;28;20215;-68
2021/12/21 08:47:00;;;;;;;11.32;10.13;;;-1.40;99.90;;;;;;4991141;28;20234;-70
2021/12/21 08:49:27;;;;;;;12.73;11.05;;;-1.30;99.90;;;;;;4991279;28;20211;-69
2021/12/21 08:51:55;;;;;;;15.23;10.68;;;-1.30;99.90;;;;;;4991045;28;20294;-68
2021/12/21 08:54:22;;;;;;;15.30;8.50;;;-1.30;99.90;;;;;;4991582;28;20215;-68
2021/12/21 08:56:50;;;;;;;16.67;12.65;;;-1.30;99.90;;;;;;4991694;28;20208;-68
2021/12/21 08:59:17;;;;;;;13.23;11.93;;;-1.20;99.90;;;;;;4990403;28;20656;-69
2021/12/21 09:01:44;;;;;;;15.73;13.20;;;-1.30;99.90;;;;;;4991574;28;20266;-69
2021/12/21 09:04:11;;;;;;;18.00;13.00;;;-1.30;99.90;;;;;;4991205;28;20302;-68
2021/12/21 09:06:38;;;;;;;12.48;10.90;;;-1.30;99.90;;;;;;4991221;28;20208;-68
2021/12/21 09:09:05;;;;;;;15.68;11.65;;;-1.30;99.90;;;;;;4990541;28;20270;-69
2021/12/21 09:11:32;;;;;;;14.68;12.18;;;-1.20;99.90;;;;;;4991001;28;20227;-69
2021/12/21 09:14:00;;;;;;;16.25;12.05;;;-1.20;99.90;;;;;;4990627;28;20339;-68
2021/12/21 09:16:26;;;;;;;14.63;11.13;;;-1.20;99.90;;;;;;4991460;28;20243;-68
2021/12/21 09:18:53;;;;;;;11.32;10.05;;;-1.20;99.90;;;;;;4995591;28;20211;-68
2021/12/21 09:21:20;;;;;;;12.10;10.80;;;-1.20;99.90;;;;;;4988000;28;20236;-68
2021/12/21 09:23:46;;;;;;;12.57;10.82;;;-1.10;99.90;;;;;;4984855;28;20574;-68
2021/12/21 09:26:13;;;;;;;13.32;10.85;;;-1.10;99.90;;;;;;4990233;28;20216;-69
2021/12/21 09:28:40;;;;;;;12.57;11.23;;;-1.00;99.90;;;;;;4971300;28;20208;-68
2021/12/21 09:31:08;;;;;;;14.98;10.98;;;-1.00;99.90;;;;;;4970768;28;20229;-69
2021/12/21 09:33:35;;;;;;;20.45;12.38;;;-0.90;99.90;;;;;;4971350;28;20236;-69
2021/12/21 09:36:02;;;;;;;24.38;11.35;;;-0.90;99.90;;;;;;4971443;28;20299;-69
2021/12/21 09:38:28;;;;;;;18.70;12.52;;;-0.80;99.90;;;;;;4971741;28;20209;-68
2021/12/21 09:40:55;;;;;;;16.15;12.20;;;-0.70;99.90;;;;;;4977826;28;20645;-68
2021/12/21 09:43:22;;;;;;;13.95;11.75;;;-0.60;99.90;;;;;;4990432;28;20204;-69
2021/12/21 09:45:50;;;;;;;19.90;14.45;;;-0.50;99.90;;;;;;4990323;28;20211;-69
2021/12/21 09:48:18;;;;;;;18.80;15.00;;;-0.40;99.90;;;;;;4990896;28;20295;-69
2021/12/21 09:50:45;;;;;;;17.85;12.63;;;-0.30;99.90;;;;;;4990586;28;20224;-68
2021/12/21 09:53:12;;;;;;;13.73;11.75;;;-0.20;99.90;;;;;;4990857;28;20240;-69
2021/12/21 09:55:39;;;;;;;17.33;13.90;;;-0.10;99.90;;;;;;4990493;28;20204;-69
2021/12/21 09:58:06;;;;;;;13.48;11.52;;;0.00;99.90;;;;;;4990417;28;20223;-68
2021/12/21 10:00:34;;;;;;;13.00;11.52;;;0.10;99.90;;;;;;4988085;28;20263;-69
2021/12/21 10:03:04;;;;;;;11.68;10.57;;;0.20;99.90;;;;;;4990936;28;20197;-69
2021/12/21 10:05:35;;;;;;;16.13;13.95;;;0.30;99.90;;;;;;4990888;28;20212;-68
2021/12/21 10:08:05;;;;;;;16.17;14.40;;;0.40;99.90;;;;;;4990703;28;20219;-68
2021/12/21 10:10:33;;;;;;;20.52;15.75;;;0.50;99.90;;;;;;4990423;28;20219;-68
2021/12/21 10:13:08;;;;;;;31.60;23.30;;;0.50;99.90;;;;;;4990782;28;20688;-68
2021/12/21 10:15:40;;;;;;;22.00;16.90;;;0.60;99.90;;;;;;4990913;28;20653;-69
2021/12/21 10:18:07;;;;;;;60.83;40.08;;;0.70;99.90;;;;;;4990800;28;20215;-69
2021/12/21 10:20:37;;;;;;;30.85;20.42;;;0.80;99.90;;;;;;4992911;28;20289;-68
2021/12/21 10:23:12;;;;;;;36.53;23.25;;;0.90;99.90;;;;;;4993892;28;20295;-68
2021/12/21 10:25:41;;;;;;;17.70;11.90;;;0.90;99.90;;;;;;4994003;28;20208;-69
2021/12/21 10:28:08;;;;;;;12.95;11.02;;;1.00;99.90;;;;;;4993147;28;20208;-68
2021/12/21 10:30:46;;;;;;;14.98;13.48;;;1.10;99.90;;;;;;4993102;28;20238;-70
2021/12/21 10:33:13;;;;;;;17.88;16.02;;;1.10;99.90;;;;;;4993894;28;20232;-68
2021/12/21 10:35:41;;;;;;;12.70;11.35;;;1.20;99.90;;;;;;4993760;28;20307;-68
2021/12/21 10:38:08;;;;;;;11.93;10.82;;;1.30;99.90;;;;;;4993707;28;20214;-69
2021/12/21 10:40:34;;;;;;;12.48;11.27;;;1.30;99.90;;;;;;4993224;28;20240;-69
2021/12/21 10:43:03;;;;;;;16.98;11.48;;;1.30;99.90;;;;;;4993482;28;20282;-68
2021/12/21 10:45:32;;;;;;;12.73;10.70;;;1.40;99.90;;;;;;4993245;28;20208;-69
2021/12/21 10:48:00;;;;;;;11.80;10.60;;;1.40;99.90;;;;;;4993861;28;20266;-69
2021/12/21 10:50:29;;;;;;;11.13;10.02;;;1.40;99.90;;;;;;4989363;28;20208;-69
2021/12/21 10:52:58;;;;;;;11.15;9.80;;;1.50;99.90;;;;;;4993081;28;20613;-68
2021/12/21 10:55:27;;;;;;;14.80;10.82;;;1.50;99.90;;;;;;4993604;28;20215;-68
2021/12/21 10:58:16;;;;;;;12.77;9.77;;;1.50;99.90;;;;;;4993224;28;20818;-68
2021/12/21 11:00:46;;;;;;;10.98;9.13;;;1.50;99.90;;;;;;4988310;28;20623;-68
2021/12/21 11:03:17;;;;;;;11.70;10.48;;;1.50;99.90;;;;;;4994833;28;20212;-69
2021/12/21 11:05:44;;;;;;;13.73;10.13;;;1.50;99.90;;;;;;4996627;28;20552;-67
2021/12/21 11:08:24;;;;;;;12.93;11.80;;;1.50;99.90;;;;;;4993941;28;20592;-68
2021/12/21 11:10:54;;;;;;;13.90;12.52;;;1.50;99.90;;;;;;4993387;28;20596;-68
2021/12/21 11:13:21;;;;;;;13.60;11.80;;;1.50;99.90;;;;;;4997126;28;20232;-69
2021/12/21 11:15:52;;;;;;;14.60;11.70;;;1.50;99.90;;;;;;4995749;28;20211;-70
2021/12/21 11:18:20;;;;;;;19.90;13.80;;;1.50;99.90;;;;;;4994613;28;20286;-69
2021/12/21 11:20:49;;;;;;;14.05;12.70;;;1.60;99.90;;;;;;4987764;28;20592;-68
2021/12/21 11:23:19;;;;;;;16.65;13.40;;;1.60;99.90;;;;;;4989768;28;20236;-69
2021/12/21 11:25:48;;;;;;;16.55;13.15;;;1.60;99.90;;;;;;4996470;28;20204;-70
2021/12/21 11:28:17;;;;;;;13.85;11.63;;;1.60;99.90;;;;;;4993624;28;20692;-68
2021/12/21 11:30:44;;;;;;;13.27;11.82;;;1.70;99.90;;;;;;4992118;28;20235;-69
2021/12/21 11:33:12;;;;;;;13.50;12.10;;;1.70;99.90;;;;;;4992374;28;20236;-70
2021/12/21 11:38:25;;;;;;;13.05;11.75;;;1.70;99.90;;;;;;4992900;28;20222;-70
2021/12/21 11:40:52;;;;;;;12.95;11.68;;;1.80;99.90;;;;;;4992235;28;20235;-70
2021/12/21 11:43:28;;;;;;;14.10;12.05;;;1.80;99.90;;;;;;4992498;28;20296;-69
2021/12/21 11:45:59;;;;;;;17.27;14.27;;;1.80;99.90;;;;;;4992883;28;20203;-70
2021/12/21 11:48:44;;;;;;;13.05;11.70;;;1.80;99.90;;;;;;4993259;28;20208;-70
2021/12/21 11:51:14;;;;;;;12.80;11.07;;;1.90;99.90;;;;;;4992963;28;20689;-70
2021/12/21 11:53:42;;;;;;;14.40;11.65;;;1.90;99.90;;;;;;4992654;28;20240;-69
2021/12/21 11:56:17;;;;;;;11.85;10.80;;;1.90;99.90;;;;;;4992488;28;20228;-69
2021/12/21 11:58:44;;;;;;;16.45;13.18;;;1.90;99.90;;;;;;4992035;28;20266;-69
2021/12/21 12:01:16;;;;;;;12.57;11.30;;;1.90;99.90;;;;;;4991094;28;20294;-70
2021/12/21 12:03:55;;;;;;;14.93;12.00;;;2.00;99.90;;;;;;4992391;28;20204;-70
2021/12/21 12:06:22;;;;;;;13.02;11.82;;;2.00;99.90;;;;;;4992484;28;20303;-69
2021/12/21 12:08:54;;;;;;;18.63;14.38;;;2.00;99.90;;;;;;4992421;28;20612;-69
2021/12/21 12:11:26;;;;;;;17.58;12.57;;;2.00;99.90;;;;;;4985545;28;20238;-69
2021/12/21 12:14:04;;;;;;;13.73;11.90;;;2.00;99.90;;;;;;4991034;28;20224;-69
2021/12/21 12:16:40;;;;;;;13.25;11.35;;;2.00;99.90;;;;;;4983341;28;20327;-70
2021/12/21 12:19:12;;;;;;;24.10;17.80;;;2.00;99.90;;;;;;4972394;28;20819;-69
2021/12/21 12:21:39;;;;;;;25.90;16.65;;;2.00;99.90;;;;;;4972050;28;20283;-69
2021/12/21 12:24:07;;;;;;;22.55;13.52;;;2.10;99.90;;;;;;4972288;28;20329;-69
2021/12/21 12:26:39;;;;;;;13.80;12.50;;;2.10;99.90;;;;;;4972153;28;20211;-69
2021/12/21 12:29:13;;;;;;;26.00;20.42;;;2.10;99.90;;;;;;4985125;28;20200;-69
2021/12/21 12:31:42;;;;;;;13.80;12.30;;;2.10;99.90;;;;;;4991496;28;20270;-69
2021/12/21 12:34:09;;;;;;;14.45;12.88;;;2.10;99.90;;;;;;4991317;28;20235;-69
2021/12/21 12:36:39;;;;;;;20.33;13.20;;;2.10;99.90;;;;;;4991644;28;20247;-69
2021/12/21 12:39:09;;;;;;;17.00;13.70;;;2.10;99.90;;;;;;4997514;28;20212;-68
2021/12/21 12:41:47;;;;;;;15.70;12.90;;;2.10;99.90;;;;;;5006189;28;20227;-69
2021/12/21 12:44:24;;;;;;;14.43;12.88;;;2.10;99.90;;;;;;5006412;28;20215;-69
2021/12/21 12:47:02;;;;;;;12.77;11.20;;;2.10;99.90;;;;;;5002176;28;20231;-70
2021/12/21 12:49:30;;;;;;;18.55;12.88;;;2.20;99.90;;;;;;4991016;28;20219;-69
2021/12/21 12:52:07;;;;;;;13.48;12.05;;;2.20;99.90;;;;;;4986170;28;20266;-68
2021/12/21 12:54:46;;;;;;;12.95;10.73;;;2.20;99.90;;;;;;4991327;28;20223;-68
2021/12/21 12:57:25;;;;;;;13.77;11.38;;;2.20;99.90;;;;;;4990946;28;20208;-68
2021/12/21 12:59:53;;;;;;;12.27;10.90;;;2.20;99.90;;;;;;4990570;28;20204;-69
2021/12/21 13:02:20;;;;;;;12.45;10.85;;;2.10;99.90;;;;;;4991481;28;20239;-69
2021/12/21 13:04:47;;;;;;;10.32;9.48;;;2.10;99.90;;;;;;4991167;28;20203;-68
2021/12/21 13:07:15;;;;;;;16.50;11.90;;;2.10;99.90;;;;;;4991306;28;20216;-68
2021/12/21 13:09:43;;;;;;;18.27;11.38;;;2.10;99.90;;;;;;4990495;28;20645;-69
2021/12/21 13:12:11;;;;;;;14.80;11.95;;;2.10;99.90;;;;;;4991127;28;20223;-69
2021/12/21 13:14:38;;;;;;;12.40;10.35;;;2.10;99.90;;;;;;4990455;28;20323;-68
2021/12/21 13:17:04;;;;;;;11.93;10.25;;;2.10;99.90;;;;;;4991345;28;20212;-68
2021/12/21 13:19:32;;;;;;;12.85;11.05;;;2.10;99.90;;;;;;4990535;28;20200;-68
2021/12/21 13:22:01;;;;;;;13.88;10.23;;;2.10;99.90;;;;;;4991164;28;20227;-69
2021/12/21 13:24:33;;;;;;;12.68;9.98;;;2.10;99.90;;;;;;4990514;28;20200;-69
2021/12/21 13:27:09;;;;;;;12.10;9.73;;;2.10;99.90;;;;;;4989555;28;20672;-69
2021/12/21 13:29:36;;;;;;;6.60;5.90;;;2.10;99.90;;;;;;4988868;28;20642;-64
2021/12/21 13:32:06;;;;;;;5.80;5.30;;;2.10;99.90;;;;;;4983848;28;20278;-69
2021/12/21 13:34:33;;;;;;;5.88;4.95;;;2.10;99.90;;;;;;4990182;28;20601;-69
2021/12/21 13:37:02;;;;;;;9.65;5.53;;;2.10;99.90;;;;;;4989893;28;20255;-69
2021/12/21 13:39:31;;;;;;;10.35;6.60;;;2.00;99.90;;;;;;4979043;28;20212;-69
2021/12/21 13:42:02;;;;;;;7.15;5.32;;;2.00;99.90;;;;;;4989318;28;20232;-69
2021/12/21 13:44:32;;;;;;;6.07;5.50;;;2.00;99.90;;;;;;4989938;28;20657;-70
2021/12/21 13:47:01;;;;;;;9.68;6.22;;;2.00;99.90;;;;;;4989140;28;20285;-70
2021/12/21 13:49:28;;;;;;;6.05;5.40;;;1.90;99.90;;;;;;4990512;28;20311;-69
2021/12/21 13:51:56;;;;;;;6.53;5.90;;;1.90;99.90;;;;;;4990422;28;20307;-69
2021/12/21 13:54:25;;;;;;;8.48;6.15;;;1.90;99.90;;;;;;4991597;28;20227;-69
2021/12/21 13:56:53;;;;;;;10.27;5.68;;;1.90;99.90;;;;;;4993472;28;20200;-69
2021/12/21 13:59:22;;;;;;;11.35;8.85;;;1.80;99.90;;;;;;4992946;28;20214;-69
2021/12/21 14:01:54;;;;;;;8.30;7.13;;;1.80;99.90;;;;;;4993278;28;20692;-70
2021/12/21 14:04:26;;;;;;;7.97;7.15;;;1.80;99.90;;;;;;4988238;28;20224;-69
2021/12/21 14:06:54;;;;;;;10.48;6.40;;;1.80;99.90;;;;;;4994312;28;20200;-70
2021/12/21 14:09:23;;;;;;;7.35;6.65;;;1.70;99.90;;;;;;4977342;28;20614;-70
2021/12/21 14:11:54;;;;;;;8.60;6.90;;;1.70;99.90;;;;;;4990795;28;20227;-69
2021/12/21 14:14:23;;;;;;;10.90;8.55;;;1.70;99.90;;;;;;4993510;28;20265;-70
2021/12/21 14:16:52;;;;;;;8.73;7.40;;;1.70;99.90;;;;;;4984517;28;20227;-69
2021/12/21 14:19:21;;;;;;;9.35;8.40;;;1.60;99.90;;;;;;4986264;28;20219;-69
2021/12/21 14:21:51;;;;;;;12.95;8.63;;;1.60;99.90;;;;;;4996863;28;20260;-68
2021/12/21 14:24:20;;;;;;;11.38;8.75;;;1.50;99.90;;;;;;4992843;28;20258;-68
2021/12/21 14:26:49;;;;;;;15.55;10.82;;;1.50;99.90;;;;;;4993473;28;20214;-69
2021/12/21 14:29:18;;;;;;;12.95;10.38;;;1.50;99.90;;;;;;4993259;28;20694;-68
2021/12/21 14:31:51;;;;;;;14.02;12.38;;;1.50;99.90;;;;;;4994397;28;20228;-69
2021/12/21 14:34:24;;;;;;;15.23;11.13;;;1.40;99.90;;;;;;4993817;28;20270;-69
2021/12/21 14:36:51;;;;;;;17.23;12.05;;;1.40;99.90;;;;;;4994000;28;20204;-70
2021/12/21 14:39:20;;;;;;;15.48;12.27;;;1.40;99.90;;;;;;4994206;28;20212;-68
2021/12/21 14:41:49;;;;;;;14.52;12.07;;;1.40;99.90;;;;;;4993946;28;20674;-68
2021/12/21 14:44:18;;;;;;;17.95;13.27;;;1.40;99.90;;;;;;4993211;28;20287;-69
2021/12/21 14:46:57;;;;;;;16.67;13.25;;;1.30;99.90;;;;;;4994049;28;20588;-69
2021/12/21 14:49:27;;;;;;;17.90;14.20;;;1.30;99.90;;;;;;4993733;28;20211;-69
2021/12/21 14:51:57;;;;;;;16.30;13.68;;;1.30;99.90;;;;;;4993927;28;20255;-69
2021/12/21 14:54:26;;;;;;;14.95;13.43;;;1.20;99.90;;;;;;4993692;28;20227;-69
2021/12/21 14:57:01;;;;;;;17.92;14.15;;;1.20;99.90;;;;;;4993617;28;20680;-68
2021/12/21 14:59:33;;;;;;;13.13;11.80;;;1.10;99.90;;;;;;4988769;28;20208;-69
2021/12/21 15:02:04;;;;;;;15.82;12.13;;;1.10;99.90;;;;;;4993201;28;20599;-68
2021/12/21 15:04:32;;;;;;;17.45;14.25;;;1.10;99.90;;;;;;4993237;28;20572;-69
2021/12/21 15:06:59;;;;;;;15.00;13.40;;;1.00;99.90;;;;;;4992277;28;20216;-69
2021/12/21 15:09:26;;;;;;;19.85;14.13;;;1.00;99.90;;;;;;4993381;28;20215;-68
2021/12/21 15:11:55;;;;;;;15.40;13.80;;;1.00;99.90;;;;;;4993731;28;20224;-69
2021/12/21 15:14:23;;;;;;;17.63;14.30;;;0.90;99.90;;;;;;4992750;28;20232;-68
2021/12/21 15:16:50;;;;;;;16.05;14.10;;;0.90;99.90;;;;;;4993606;28;20208;-68
2021/12/21 15:19:18;;;;;;;17.85;14.10;;;0.80;99.90;;;;;;4993252;28;20238;-69
2021/12/21 15:21:45;;;;;;;19.65;13.45;;;0.80;99.90;;;;;;4993187;28;20656;-69
2021/12/21 15:24:12;;;;;;;17.70;12.25;;;0.80;99.90;;;;;;4993051;28;20255;-67
2021/12/21 15:26:39;;;;;;;16.60;13.82;;;0.70;99.90;;;;;;4993040;28;20583;-68
2021/12/21 15:29:06;;;;;;;24.27;19.20;;;0.70;99.90;;;;;;4992093;28;20204;-69
2021/12/21 15:31:33;;;;;;;28.92;19.33;;;0.70;99.90;;;;;;4991613;28;20216;-68
2021/12/21 15:34:00;;;;;;;25.63;17.40;;;0.70;99.90;;;;;;4992683;28;20335;-68
2021/12/21 15:36:28;;;;;;;26.58;19.75;;;0.60;99.90;;;;;;4992365;28;20223;-68
2021/12/21 15:38:55;;;;;;;22.35;15.82;;;0.60;99.90;;;;;;4992627;28;20212;-68
2021/12/21 15:41:22;;;;;;;25.67;16.73;;;0.60;99.90;;;;;;4987841;28;20232;-68
2021/12/21 15:43:49;;;;;;;22.48;17.10;;;0.60;99.90;;;;;;4990854;28;20274;-68
2021/12/21 15:46:18;;;;;;;26.05;18.33;;;0.50;99.90;;;;;;4979334;28;20204;-69
2021/12/21 15:48:45;;;;;;;26.38;18.05;;;0.50;99.90;;;;;;4984920;28;20211;-68
2021/12/21 15:51:13;;;;;;;26.05;17.75;;;0.50;99.90;;;;;;4992661;28;20223;-69
2021/12/21 15:53:42;;;;;;;22.48;16.70;;;0.40;99.90;;;;;;4995151;28;20254;-69
2021/12/21 15:56:11;;;;;;;26.15;17.40;;;0.40;99.90;;;;;;4994313;28;20235;-68
2021/12/21 15:58:38;;;;;;;24.63;17.83;;;0.40;99.90;;;;;;4987291;28;20208;-68
2021/12/21 16:01:05;;;;;;;34.80;19.80;;;0.30;99.90;;;;;;4988075;28;20232;-68
2021/12/21 16:03:32;;;;;;;22.65;17.40;;;0.30;99.90;;;;;;5002295;28;20207;-67
2021/12/21 16:05:59;;;;;;;23.83;17.95;;;0.30;99.90;;;;;;4991978;28;20215;-68
2021/12/21 16:08:25;;;;;;;23.73;18.17;;;0.20;99.90;;;;;;5000195;28;20212;-68
2021/12/21 16:10:53;;;;;;;27.90;18.73;;;0.20;99.90;;;;;;4986818;28;20220;-69
2021/12/21 16:13:20;;;;;;;28.85;20.05;;;0.20;99.90;;;;;;4989640;28;20208;-68
2021/12/21 16:15:47;;;;;;;27.45;21.60;;;0.20;99.90;;;;;;4983163;28;20225;-69
2021/12/21 16:18:14;;;;;;;28.95;22.92;;;0.10;99.90;;;;;;4972051;28;20266;-68
2021/12/21 16:20:41;;;;;;;38.28;24.38;;;0.20;99.90;;;;;;4973307;28;20224;-69
2021/12/21 16:23:07;;;;;;;24.15;20.65;;;0.20;99.90;;;;;;4972540;28;20219;-68
2021/12/21 16:25:34;;;;;;;25.35;20.63;;;0.20;99.90;;;;;;4973305;28;20201;-68
2021/12/21 16:28:03;;;;;;;26.73;19.50;;;0.10;99.90;;;;;;4972932;28;20212;-69
2021/12/21 16:30:44;;;;;;;26.85;20.85;;;0.10;99.90;;;;;;4976088;28;20197;-68
2021/12/21 16:33:11;;;;;;;33.95;22.45;;;0.10;99.90;;;;;;4991431;28;20200;-70
2021/12/21 16:35:39;;;;;;;33.28;24.10;;;0.10;99.90;;;;;;4983719;28;20239;-70
2021/12/21 16:38:06;;;;;;;33.38;24.15;;;0.10;99.90;;;;;;4991488;28;20207;-70
2021/12/21 16:40:33;;;;;;;33.40;23.65;;;0.00;99.90;;;;;;4990120;28;20266;-70
2021/12/21 16:43:00;;;;;;;35.25;25.30;;;0.00;99.90;;;;;;4988319;28;20216;-70
2021/12/21 16:45:28;;;;;;;31.63;22.80;;;0.00;99.90;;;;;;4989023;28;20286;-70
2021/12/21 16:47:55;;;;;;;34.53;24.45;;;0.00;99.90;;;;;;4991045;28;20215;-70
2021/12/21 16:50:22;;;;;;;31.60;23.67;;;-0.10;99.90;;;;;;4990379;28;20208;-71
2021/12/21 16:52:49;;;;;;;29.98;24.60;;;-0.10;99.90;;;;;;4990218;28;20254;-69
2021/12/21 16:55:15;;;;;;;40.22;23.92;;;-0.10;99.90;;;;;;4989783;28;20527;-70
2021/12/21 16:57:42;;;;;;;39.35;25.67;;;-0.10;99.90;;;;;;4990051;28;20274;-71
2021/12/21 17:00:11;;;;;;;33.72;23.63;;;-0.10;99.90;;;;;;4985962;28;20215;-71
2021/12/21 17:02:39;;;;;;;37.60;25.33;;;-0.20;99.90;;;;;;4976311;28;20239;-71
2021/12/21 17:05:06;;;;;;;35.45;23.42;;;-0.20;99.90;;;;;;4988451;28;20204;-72
2021/12/21 17:07:33;;;;;;;34.42;23.30;;;-0.20;99.90;;;;;;4991220;28;20258;-70
2021/12/21 17:10:05;;;;;;;40.30;25.40;;;-0.20;99.90;;;;;;4989767;28;20354;-70
2021/12/21 17:12:33;;;;;;;35.33;23.45;;;-0.20;99.90;;;;;;4988557;28;20238;-70
2021/12/21 17:15:00;;;;;;;31.98;23.33;;;-0.20;99.90;;;;;;4982696;28;20238;-71
2021/12/21 17:17:27;;;;;;;34.97;23.90;;;-0.20;99.90;;;;;;4984611;28;20208;-69
2021/12/21 17:19:55;;;;;;;32.60;25.10;;;-0.30;99.90;;;;;;4989064;28;20642;-67
2021/12/21 17:22:22;;;;;;;41.28;27.42;;;-0.30;99.90;;;;;;4984999;28;20561;-68
2021/12/21 17:24:50;;;;;;;38.95;26.17;;;-0.30;99.90;;;;;;4989122;28;20199;-69
2021/12/21 17:27:17;;;;;;;33.63;24.20;;;-0.30;99.90;;;;;;4990709;28;20215;-68
2021/12/21 17:29:44;;;;;;;40.50;24.95;;;-0.30;99.90;;;;;;4985573;28;20223;-70
2021/12/21 17:32:12;;;;;;;50.20;27.13;;;-0.30;99.90;;;;;;4995246;28;20686;-70
2021/12/21 17:34:39;;;;;;;37.38;25.85;;;-0.30;99.90;;;;;;4990551;28;20691;-69
2021/12/21 17:37:08;;;;;;;30.33;23.23;;;-0.30;99.90;;;;;;4994776;28;20211;-70
2021/12/21 17:39:35;;;;;;;32.70;22.17;;;-0.30;99.90;;;;;;4988207;28;20267;-69
2021/12/21 17:42:02;;;;;;;34.38;23.30;;;-0.40;99.90;;;;;;4994675;28;20327;-69
2021/12/21 17:44:29;;;;;;;32.47;24.30;;;-0.40;99.90;;;;;;4992249;28;20446;-70
2021/12/21 17:46:56;;;;;;;35.97;24.35;;;-0.40;99.90;;;;;;4994791;28;20250;-70
2021/12/21 17:49:22;;;;;;;40.80;26.00;;;-0.40;99.90;;;;;;4994188;28;20230;-70
2021/12/21 17:51:49;;;;;;;45.95;29.00;;;-0.50;99.90;;;;;;4987827;28;20224;-70
2021/12/21 17:54:17;;;;;;;48.58;28.02;;;-0.50;99.90;;;;;;4989997;28;20303;-68
2021/12/21 17:56:44;;;;;;;43.58;28.00;;;-0.50;99.90;;;;;;4985184;28;20226;-68
2021/12/21 17:59:11;;;;;;;46.28;27.83;;;-0.50;99.90;;;;;;4985358;28;20212;-69
2021/12/21 18:01:37;;;;;;;50.67;31.83;;;-0.50;99.90;;;;;;4991555;28;20606;-69
2021/12/21 18:04:04;;;;;;;55.97;35.50;;;-0.50;99.90;;;;;;4993768;28;20208;-69
2021/12/21 18:06:31;;;;;;;60.63;37.30;;;-0.50;99.90;;;;;;4992939;28;20286;-67
2021/12/21 18:08:58;;;;;;;60.00;38.28;;;-0.60;99.90;;;;;;4998879;28;20454;-70
2021/12/21 18:11:27;;;;;;;81.00;44.92;;;-0.60;99.90;;;;;;5005749;28;20231;-67
2021/12/21 18:13:53;;;;;;;91.55;51.63;;;-0.60;99.90;;;;;;5003705;28;20296;-67